Time;durP1;ratioP1;P1;durP2;ratioP2;P2;SDS_P1;SDS_P2;PMS_P1;PMS_P2;Temp;Humidity;BMP_temperature;BMP_pressure;BME280_temperature;BME280_humidity;BME280_pressure;Samples;Min_cycle;Max_cycle;Signal;HPM_P1;HPM_P2
2023/02/25 00:00:29;;;;;;;4.72;1.10;;;8.40;97.20;;;;;;4975428;28;87592;-75
2023/02/25 00:02:56;;;;;;;6.72;1.63;;;8.20;93.90;;;;;;4975104;28;87355;-75
2023/02/25 00:05:22;;;;;;;8.48;1.63;;;7.80;92.70;;;;;;4976033;28;88701;-75
2023/02/25 00:07:47;;;;;;;6.50;1.48;;;7.60;93.60;;;;;;4973339;28;89088;-75
2023/02/25 00:10:14;;;;;;;7.32;1.85;;;7.50;93.70;;;;;;4973425;28;88913;-75
2023/02/25 00:12:40;;;;;;;6.78;1.90;;;7.40;94.20;;;;;;4977844;28;87471;-74
2023/02/25 00:15:08;;;;;;;7.63;1.45;;;7.20;93.90;;;;;;4974332;28;89321;-75
2023/02/25 00:17:34;;;;;;;7.45;1.90;;;7.20;94.80;;;;;;4972084;28;87963;-75
2023/02/25 00:20:00;;;;;;;8.07;1.88;;;7.10;94.90;;;;;;4974480;28;88325;-76
2023/02/25 00:22:27;;;;;;;5.88;2.00;;;7.00;94.50;;;;;;4980806;28;86887;-76
2023/02/25 00:24:56;;;;;;;7.78;1.98;;;7.00;94.90;;;;;;4975331;28;89523;-75
2023/02/25 00:27:24;;;;;;;6.30;1.60;;;7.10;94.80;;;;;;4969383;28;88145;-76
2023/02/25 00:29:53;;;;;;;5.80;1.63;;;7.00;94.90;;;;;;4976847;28;88274;-75
2023/02/25 00:32:19;;;;;;;6.28;1.60;;;7.00;94.90;;;;;;4972425;28;89717;-76
2023/02/25 00:34:46;;;;;;;8.52;2.22;;;7.00;95.10;;;;;;4976817;28;89771;-76
2023/02/25 00:37:12;;;;;;;6.20;1.90;;;7.10;95.10;;;;;;4973462;28;88224;-76
2023/02/25 00:39:40;;;;;;;6.22;1.55;;;7.10;95.20;;;;;;4971048;28;87475;-75
2023/02/25 00:42:14;;;;;;;6.10;1.65;;;7.10;95.30;;;;;;4972987;28;87695;-75
2023/02/25 00:44:44;;;;;;;5.88;1.55;;;7.10;95.10;;;;;;4973307;28;88152;-75
2023/02/25 00:47:10;;;;;;;6.68;1.30;;;7.20;94.40;;;;;;4976325;28;87251;-75
2023/02/25 00:49:35;;;;;;;6.90;1.48;;;7.10;94.10;;;;;;4976281;28;87367;-76
2023/02/25 00:52:01;;;;;;;5.05;1.38;;;7.10;94.10;;;;;;4977991;28;87413;-76
2023/02/25 00:54:27;;;;;;;8.52;1.20;;;7.10;93.50;;;;;;4971607;28;90141;-76
2023/02/25 00:56:53;;;;;;;7.15;1.48;;;7.20;93.60;;;;;;4973530;28;89090;-76
2023/02/25 00:59:18;;;;;;;4.53;1.23;;;7.20;93.50;;;;;;4973378;28;88647;-76
2023/02/25 01:01:44;;;;;;;3.55;1.10;;;7.20;92.60;;;;;;4970844;28;88503;-76
2023/02/25 01:04:09;;;;;;;4.47;1.08;;;7.20;92.30;;;;;;4966257;28;88268;-76
2023/02/25 01:06:37;;;;;;;4.72;1.02;;;7.20;92.10;;;;;;4978003;28;89600;-73
2023/02/25 01:09:05;;;;;;;4.82;1.05;;;7.20;93.00;;;;;;4979670;28;87040;-75
2023/02/25 01:11:33;;;;;;;5.75;0.93;;;7.30;92.00;;;;;;4972934;28;87024;-74
2023/02/25 01:14:05;;;;;;;4.90;1.30;;;7.20;92.50;;;;;;4972063;28;88069;-76
2023/02/25 01:16:32;;;;;;;5.00;1.05;;;7.20;92.70;;;;;;4972428;28;87436;-77
2023/02/25 01:19:04;;;;;;;5.15;1.25;;;7.00;92.10;;;;;;4971124;28;89375;-76
2023/02/25 01:21:39;;;;;;;6.03;1.42;;;7.00;93.20;;;;;;4979562;28;88410;-76
2023/02/25 01:24:18;;;;;;;5.15;1.23;;;7.00;94.20;;;;;;4974714;28;88085;-76
2023/02/25 01:26:46;;;;;;;5.05;1.35;;;7.00;94.60;;;;;;4972550;28;87856;-76
2023/02/25 01:29:15;;;;;;;5.18;1.75;;;6.90;93.80;;;;;;4973427;28;88708;-76
2023/02/25 01:31:41;;;;;;;6.53;1.33;;;6.80;94.90;;;;;;4970790;28;88188;-75
2023/02/25 01:34:11;;;;;;;7.95;1.48;;;6.70;94.90;;;;;;4972469;28;87091;-74
2023/02/25 01:36:37;;;;;;;7.05;1.02;;;6.70;96.00;;;;;;4975905;28;87960;-75
2023/02/25 01:39:03;;;;;;;5.10;1.25;;;6.80;95.30;;;;;;4976457;28;87332;-75
2023/02/25 01:41:30;;;;;;;5.40;1.00;;;6.80;94.00;;;;;;4973869;28;87447;-74
2023/02/25 01:44:11;;;;;;;5.55;1.33;;;6.80;93.90;;;;;;4975181;28;89542;-74
2023/02/25 01:46:38;;;;;;;5.22;1.08;;;6.90;94.40;;;;;;4972426;28;88891;-75
2023/02/25 01:49:15;;;;;;;5.50;1.17;;;7.00;93.60;;;;;;4975598;28;88052;-75
2023/02/25 01:51:43;;;;;;;4.95;1.13;;;7.00;93.60;;;;;;4974030;28;87615;-75
2023/02/25 01:54:10;;;;;;;5.05;0.88;;;7.00;93.90;;;;;;4973431;28;88324;-73
2023/02/25 01:56:39;;;;;;;4.47;1.08;;;7.00;93.10;;;;;;4977939;28;88602;-73
2023/02/25 01:59:05;;;;;;;4.47;0.85;;;6.90;93.40;;;;;;4973362;28;87535;-73
2023/02/25 02:01:34;;;;;;;5.15;1.20;;;6.90;93.60;;;;;;4970425;28;87708;-75
2023/02/25 02:04:03;;;;;;;4.28;0.93;;;6.90;93.80;;;;;;4973225;28;87545;-75
2023/02/25 02:06:35;;;;;;;7.07;1.27;;;6.90;93.00;;;;;;4973839;28;88632;-75
2023/02/25 02:09:02;;;;;;;5.15;0.95;;;6.80;93.00;;;;;;4971145;28;88663;-75
2023/02/25 02:11:28;;;;;;;4.15;0.93;;;6.80;92.70;;;;;;4971345;28;87926;-75
2023/02/25 02:13:56;;;;;;;5.40;1.23;;;6.80;92.50;;;;;;4971141;28;88133;-75
2023/02/25 02:16:43;;;;;;;3.60;1.00;;;6.80;92.30;;;;;;4977752;28;87765;-76
2023/02/25 02:19:30;;;;;;;6.05;1.20;;;6.80;92.90;;;;;;4973008;28;87344;-75
2023/02/25 02:22:31;;;;;;;4.35;0.90;;;6.90;93.00;;;;;;4973483;28;87339;-76
2023/02/25 02:25:27;;;;;;;4.90;0.93;;;6.80;92.30;;;;;;4972664;28;87781;-76
2023/02/25 02:28:23;;;;;;;3.95;1.00;;;6.60;92.90;;;;;;4974971;28;87828;-75
2023/02/25 02:31:11;;;;;;;3.55;0.80;;;6.50;93.60;;;;;;4975366;28;87018;-75
2023/02/25 02:33:55;;;;;;;3.45;0.98;;;6.30;94.00;;;;;;4972563;28;89356;-73
2023/02/25 02:36:58;;;;;;;6.65;1.10;;;6.30;93.90;;;;;;4968647;28;90189;-73
2023/02/25 02:39:24;;;;;;;6.25;0.68;;;6.30;94.10;;;;;;4969271;28;87747;-76
2023/02/25 02:41:56;;;;;;;5.03;0.55;;;6.20;94.00;;;;;;4974195;28;87373;-74
2023/02/25 02:44:30;;;;;;;2.35;0.55;;;6.10;93.70;;;;;;4974747;28;88221;-74
2023/02/25 02:47:12;;;;;;;2.83;0.60;;;6.00;93.60;;;;;;4980496;28;87627;-74
2023/02/25 02:49:42;;;;;;;3.20;0.70;;;5.80;94.60;;;;;;4970312;28;87329;-76
2023/02/25 02:52:15;;;;;;;3.03;0.50;;;5.80;95.20;;;;;;4973483;28;87434;-76
2023/02/25 02:54:46;;;;;;;2.80;0.60;;;5.90;95.40;;;;;;4977359;28;88689;-76
2023/02/25 02:57:14;;;;;;;4.57;0.70;;;5.90;95.60;;;;;;4967908;28;87650;-76
2023/02/25 02:59:46;;;;;;;4.25;0.70;;;5.90;95.30;;;;;;4968049;28;87949;-77
2023/02/25 03:02:25;;;;;;;4.03;0.70;;;6.00;95.60;;;;;;4970025;28;88392;-76
2023/02/25 03:04:55;;;;;;;2.53;0.60;;;6.00;94.80;;;;;;4975986;28;87534;-76
2023/02/25 03:07:22;;;;;;;4.13;0.80;;;6.00;94.60;;;;;;4971657;28;88157;-74
2023/02/25 03:10:00;;;;;;;3.60;0.75;;;6.00;94.90;;;;;;4981340;28;87420;-74
2023/02/25 03:12:27;;;;;;;3.10;0.85;;;6.00;94.70;;;;;;4971923;28;87342;-75
2023/02/25 03:14:52;;;;;;;3.47;0.82;;;6.10;94.50;;;;;;4974535;28;88063;-75
2023/02/25 03:17:23;;;;;;;4.03;0.77;;;6.10;94.70;;;;;;4969023;28;87535;-75
2023/02/25 03:20:17;;;;;;;2.83;0.50;;;6.00;94.30;;;;;;4990000;28;90675;-72
2023/02/25 03:22:46;;;;;;;3.95;0.50;;;6.00;94.50;;;;;;4973551;28;87419;-73
2023/02/25 03:25:48;;;;;;;2.65;0.50;;;5.90;94.50;;;;;;4968766;28;87282;-75
2023/02/25 03:28:22;;;;;;;2.80;0.70;;;5.80;94.30;;;;;;4957006;28;88687;-74
2023/02/25 03:30:56;;;;;;;2.45;0.60;;;5.70;94.50;;;;;;4983789;28;89541;-76
2023/02/25 03:33:35;;;;;;;3.42;0.70;;;5.60;94.70;;;;;;4972431;28;87912;-76
2023/02/25 03:36:08;;;;;;;3.38;0.77;;;5.50;94.90;;;;;;4970803;28;88229;-75
2023/02/25 03:38:36;;;;;;;3.95;0.77;;;5.40;95.00;;;;;;4975825;28;88731;-74
2023/02/25 03:41:06;;;;;;;2.45;0.50;;;5.40;95.50;;;;;;4966579;28;88465;-75
2023/02/25 03:43:38;;;;;;;3.95;0.55;;;5.30;94.90;;;;;;4972838;28;87300;-75
2023/02/25 03:46:04;;;;;;;2.50;0.45;;;5.20;95.30;;;;;;4974880;28;86744;-76
2023/02/25 03:48:34;;;;;;;3.10;0.40;;;5.20;95.90;;;;;;4970307;28;88507;-75
2023/02/25 03:51:02;;;;;;;4.75;0.60;;;5.20;95.90;;;;;;4971428;28;89027;-75
2023/02/25 03:53:29;;;;;;;3.22;0.57;;;5.20;95.60;;;;;;4972650;28;89006;-75
2023/02/25 03:56:04;;;;;;;2.28;0.35;;;5.30;95.90;;;;;;4972138;28;87719;-75
2023/02/25 03:58:40;;;;;;;2.30;0.40;;;5.40;95.60;;;;;;4970386;28;87600;-75
2023/02/25 04:01:15;;;;;;;1.83;0.30;;;5.40;95.30;;;;;;4969105;28;88526;-75
2023/02/25 04:03:40;;;;;;;3.08;0.20;;;5.40;95.30;;;;;;4973506;28;87230;-75
2023/02/25 04:06:06;;;;;;;2.42;0.20;;;5.40;95.20;;;;;;4970485;28;87891;-74
2023/02/25 04:08:32;;;;;;;1.75;0.20;;;5.40;95.00;;;;;;4970821;28;89463;-74
2023/02/25 04:10:57;;;;;;;1.50;0.20;;;5.50;95.10;;;;;;4981696;28;86952;-72
2023/02/25 04:13:26;;;;;;;2.03;0.30;;;5.50;95.50;;;;;;4973369;28;87526;-73
2023/02/25 04:15:52;;;;;;;1.45;0.20;;;5.70;95.50;;;;;;4972068;28;87686;-74
2023/02/25 04:18:17;;;;;;;1.42;0.15;;;5.60;94.50;;;;;;4972071;28;89064;-74
2023/02/25 04:20:43;;;;;;;1.98;0.15;;;5.60;94.40;;;;;;4971985;28;88259;-75
2023/02/25 04:23:14;;;;;;;1.35;0.20;;;5.60;94.60;;;;;;4969115;28;87437;-75
2023/02/25 04:25:40;;;;;;;2.15;0.20;;;5.50;94.50;;;;;;4965802;28;87857;-74
2023/02/25 04:28:05;;;;;;;1.85;0.30;;;5.40;94.60;;;;;;4965646;28;88575;-72
2023/02/25 04:30:31;;;;;;;1.73;0.30;;;5.40;94.80;;;;;;4970911;28;90310;-72
2023/02/25 04:32:56;;;;;;;4.43;0.30;;;5.30;95.20;;;;;;4969545;28;87346;-73
2023/02/25 04:35:22;;;;;;;2.92;0.30;;;5.30;95.10;;;;;;4970672;28;87321;-74
2023/02/25 04:37:48;;;;;;;1.05;0.10;;;5.30;95.20;;;;;;4977059;28;89070;-71
2023/02/25 04:40:16;;;;;;;1.90;0.20;;;5.30;95.00;;;;;;4983743;28;87484;-74
2023/02/25 04:42:42;;;;;;;5.25;0.30;;;5.30;95.00;;;;;;4970623;28;89021;-71
2023/02/25 04:45:09;;;;;;;1.20;0.20;;;5.30;95.30;;;;;;4980473;28;87334;-73
2023/02/25 04:47:35;;;;;;;1.48;0.20;;;5.20;94.70;;;;;;4988500;28;87643;-73
2023/02/25 04:50:02;;;;;;;1.35;0.20;;;5.10;95.20;;;;;;4972978;28;87766;-71
2023/02/25 04:52:29;;;;;;;1.50;0.30;;;5.00;95.80;;;;;;4969036;28;89427;-74
2023/02/25 04:54:54;;;;;;;1.85;0.30;;;4.90;95.90;;;;;;4977308;28;88941;-72
2023/02/25 04:57:20;;;;;;;1.98;0.20;;;4.90;96.20;;;;;;4984786;28;87947;-73
2023/02/25 04:59:46;;;;;;;1.60;0.20;;;4.90;96.60;;;;;;4979631;28;87082;-73
2023/02/25 05:02:12;;;;;;;0.88;0.10;;;4.90;96.80;;;;;;4980606;28;87305;-73
2023/02/25 05:04:38;;;;;;;3.35;0.30;;;4.90;96.80;;;;;;4977102;28;87604;-73
2023/02/25 05:07:05;;;;;;;0.82;0.10;;;5.00;96.80;;;;;;4997926;28;89052;-73
2023/02/25 05:09:32;;;;;;;1.20;0.20;;;5.00;96.60;;;;;;4977255;28;89229;-73
2023/02/25 05:11:58;;;;;;;1.83;0.20;;;5.00;96.70;;;;;;4971771;28;87647;-75
2023/02/25 05:14:23;;;;;;;0.98;0.20;;;5.10;97.00;;;;;;4971096;28;89256;-74
2023/02/25 05:16:49;;;;;;;1.77;0.28;;;5.10;96.40;;;;;;4970999;28;87819;-74
2023/02/25 05:19:16;;;;;;;1.10;0.20;;;5.10;96.00;;;;;;4970831;28;87636;-72
2023/02/25 05:21:42;;;;;;;1.70;0.30;;;5.10;96.40;;;;;;4969922;28;88614;-73
2023/02/25 05:24:08;;;;;;;1.55;0.30;;;5.00;96.20;;;;;;4973443;28;88345;-73
2023/02/25 05:26:34;;;;;;;1.95;0.30;;;5.00;96.80;;;;;;4970454;28;89331;-73
2023/02/25 05:28:59;;;;;;;1.40;0.10;;;5.10;97.00;;;;;;4973454;28;87428;-72
2023/02/25 05:31:25;;;;;;;1.42;0.10;;;5.10;97.10;;;;;;4969239;28;88804;-72
2023/02/25 05:33:51;;;;;;;0.77;0.10;;;5.10;96.80;;;;;;4972223;28;88882;-74
2023/02/25 05:36:17;;;;;;;2.42;0.10;;;5.10;97.20;;;;;;4969888;28;88740;-73
2023/02/25 05:38:43;;;;;;;1.60;0.20;;;5.10;96.80;;;;;;4971166;28;88505;-75
2023/02/25 05:41:10;;;;;;;1.45;0.28;;;5.10;96.80;;;;;;4972495;28;87450;-74
2023/02/25 05:43:38;;;;;;;0.85;0.10;;;5.00;96.90;;;;;;4985625;28;87337;-73
2023/02/25 05:46:03;;;;;;;1.17;0.20;;;5.00;96.80;;;;;;4978744;28;87174;-73
2023/02/25 05:48:31;;;;;;;2.08;0.20;;;5.00;96.80;;;;;;4969968;28;86960;-73
2023/02/25 05:51:02;;;;;;;0.98;0.28;;;5.00;96.80;;;;;;4973637;28;87097;-74
2023/02/25 05:53:28;;;;;;;0.90;0.10;;;5.00;97.20;;;;;;4970321;28;87624;-72
2023/02/25 05:55:54;;;;;;;1.55;0.10;;;5.00;97.10;;;;;;4968491;28;88974;-72
2023/02/25 05:58:20;;;;;;;2.10;0.20;;;5.00;97.10;;;;;;4968001;28;88696;-72
2023/02/25 06:00:46;;;;;;;1.35;0.22;;;5.00;97.20;;;;;;4972931;28;87271;-72
2023/02/25 06:03:11;;;;;;;0.88;0.20;;;5.10;97.50;;;;;;4969423;28;89704;-73
2023/02/25 06:05:41;;;;;;;1.27;0.20;;;5.20;96.70;;;;;;4972315;28;88648;-74
2023/02/25 06:08:08;;;;;;;3.25;0.20;;;5.30;97.10;;;;;;4968321;28;88894;-72
2023/02/25 06:10:37;;;;;;;1.20;0.10;;;5.30;96.50;;;;;;4971514;28;87926;-73
2023/02/25 06:13:04;;;;;;;1.67;0.20;;;5.30;96.70;;;;;;4969408;28;87726;-73
2023/02/25 06:15:30;;;;;;;2.55;0.20;;;5.30;96.90;;;;;;4972051;28;89486;-73
2023/02/25 06:17:55;;;;;;;2.65;0.30;;;5.40;96.80;;;;;;4970177;28;87939;-73
2023/02/25 06:20:24;;;;;;;1.38;0.20;;;5.40;96.50;;;;;;4976624;28;90568;-72
2023/02/25 06:22:53;;;;;;;2.03;0.25;;;5.40;96.80;;;;;;4974275;28;87430;-74
2023/02/25 06:25:19;;;;;;;2.85;0.30;;;5.40;96.80;;;;;;4976350;28;88480;-72
2023/02/25 06:27:45;;;;;;;2.50;0.30;;;5.40;96.90;;;;;;4972019;28;88046;-73
2023/02/25 06:30:11;;;;;;;1.85;0.20;;;5.40;96.70;;;;;;4978626;28;87377;-74
2023/02/25 06:32:37;;;;;;;3.03;0.30;;;5.30;96.80;;;;;;4991451;28;87406;-74
2023/02/25 06:35:05;;;;;;;2.22;0.50;;;5.30;97.10;;;;;;4974438;28;87527;-74
2023/02/25 06:37:31;;;;;;;2.15;0.20;;;5.40;97.00;;;;;;4974665;28;87984;-73
2023/02/25 06:39:56;;;;;;;2.63;0.10;;;5.40;97.00;;;;;;4972656;28;87740;-72
2023/02/25 06:42:22;;;;;;;2.47;0.15;;;5.30;97.10;;;;;;4973866;28;87313;-77
2023/02/25 06:44:48;;;;;;;2.03;0.30;;;5.30;96.90;;;;;;4973887;28;89038;-70
2023/02/25 06:47:13;;;;;;;1.35;0.20;;;5.30;97.00;;;;;;4984686;28;88815;-75
2023/02/25 06:49:39;;;;;;;4.88;0.28;;;5.30;97.10;;;;;;4972741;28;87750;-71
2023/02/25 06:52:05;;;;;;;2.92;0.32;;;5.30;97.60;;;;;;4973065;28;87213;-74
2023/02/25 06:54:30;;;;;;;1.13;0.20;;;5.30;97.30;;;;;;4981554;28;88756;-74
2023/02/25 06:56:56;;;;;;;1.77;0.10;;;5.30;97.30;;;;;;4976960;28;88177;-73
2023/02/25 06:59:22;;;;;;;1.52;0.20;;;5.40;96.70;;;;;;4977177;28;87922;-70
2023/02/25 07:01:47;;;;;;;1.25;0.10;;;5.40;96.90;;;;;;4971691;28;88147;-73
2023/02/25 07:04:15;;;;;;;4.00;0.13;;;5.40;96.50;;;;;;4972790;28;88532;-73
2023/02/25 07:06:40;;;;;;;2.38;0.15;;;5.40;97.00;;;;;;4976428;28;87901;-70
2023/02/25 07:09:06;;;;;;;1.75;0.10;;;5.50;96.50;;;;;;4977711;28;88376;-74
2023/02/25 07:11:34;;;;;;;1.25;0.20;;;5.60;96.30;;;;;;4985163;28;87339;-71
2023/02/25 07:14:01;;;;;;;1.85;0.20;;;5.70;96.30;;;;;;4974962;28;88102;-72
2023/02/25 07:16:28;;;;;;;10.18;2.90;;;5.80;96.50;;;;;;4977715;28;88445;-72
2023/02/25 07:18:55;;;;;;;27.05;8.80;;;5.90;95.80;;;;;;4976294;28;87964;-72
2023/02/25 07:21:21;;;;;;;32.63;9.45;;;5.90;95.20;;;;;;4975837;28;87519;-72
2023/02/25 07:23:48;;;;;;;39.53;13.40;;;6.00;95.20;;;;;;4969720;28;90482;-73
2023/02/25 07:26:14;;;;;;;10.30;3.58;;;6.10;95.00;;;;;;4977933;28;87468;-74
2023/02/25 07:28:40;;;;;;;4.47;1.05;;;6.10;94.80;;;;;;4976722;28;87545;-72
2023/02/25 07:31:17;;;;;;;4.57;1.65;;;6.20;94.40;;;;;;4976044;28;87766;-74
2023/02/25 07:33:43;;;;;;;7.38;3.90;;;6.20;94.30;;;;;;4972426;28;89603;-76
2023/02/25 07:36:10;;;;;;;2.75;1.00;;;6.40;94.30;;;;;;4978102;28;88450;-74
2023/02/25 07:38:37;;;;;;;3.63;1.20;;;6.40;94.50;;;;;;4966988;28;87516;-73
2023/02/25 07:41:15;;;;;;;3.28;1.35;;;6.50;93.40;;;;;;4973088;28;87491;-76
2023/02/25 07:43:41;;;;;;;3.67;1.23;;;6.60;93.70;;;;;;4965680;28;88787;-75
2023/02/25 07:46:07;;;;;;;3.30;0.88;;;6.70;93.50;;;;;;4974226;28;88231;-73
2023/02/25 07:48:33;;;;;;;3.15;1.10;;;6.70;93.60;;;;;;4968470;28;87238;-75
2023/02/25 07:51:10;;;;;;;2.50;0.82;;;6.80;93.50;;;;;;4968930;28;86432;-75
2023/02/25 07:53:36;;;;;;;6.68;2.50;;;6.90;93.20;;;;;;4964895;28;88790;-73
2023/02/25 07:56:01;;;;;;;9.43;3.67;;;6.90;93.20;;;;;;4970395;28;88182;-75
2023/02/25 07:58:27;;;;;;;5.85;2.35;;;6.90;93.10;;;;;;4964184;28;88571;-76
2023/02/25 08:00:53;;;;;;;8.50;2.65;;;7.00;93.30;;;;;;4972049;28;87115;-73
2023/02/25 08:03:19;;;;;;;6.45;1.80;;;7.10;92.80;;;;;;4979681;28;87651;-75
2023/02/25 08:05:49;;;;;;;4.43;1.40;;;7.00;92.80;;;;;;4987797;28;87815;-75
2023/02/25 08:08:15;;;;;;;4.78;1.13;;;7.00;92.90;;;;;;4973398;28;87400;-74
2023/02/25 08:10:41;;;;;;;4.03;1.20;;;7.00;93.10;;;;;;4978583;28;88863;-74
2023/02/25 08:13:07;;;;;;;5.07;1.38;;;7.00;93.30;;;;;;4973659;28;89174;-75
2023/02/25 08:15:32;;;;;;;6.80;1.05;;;7.00;93.30;;;;;;4972415;28;88270;-75
2023/02/25 08:17:58;;;;;;;8.20;3.38;;;7.00;93.30;;;;;;4974839;28;89319;-75
2023/02/25 08:20:24;;;;;;;27.50;12.20;;;7.10;93.60;;;;;;4983330;28;87443;-74
2023/02/25 08:22:49;;;;;;;21.67;9.70;;;7.10;92.70;;;;;;4977883;28;89017;-76
2023/02/25 08:25:15;;;;;;;22.63;9.63;;;7.10;92.80;;;;;;4976547;28;88290;-75
2023/02/25 08:27:42;;;;;;;39.08;17.40;;;7.20;93.00;;;;;;4977449;28;87225;-75
2023/02/25 08:30:09;;;;;;;24.00;9.63;;;7.30;92.50;;;;;;4977167;28;87827;-75
2023/02/25 08:32:35;;;;;;;9.95;3.60;;;7.30;92.30;;;;;;4974183;28;88010;-72
2023/02/25 08:35:01;;;;;;;5.97;2.63;;;7.30;91.20;;;;;;4975812;28;87650;-72
2023/02/25 08:37:27;;;;;;;5.63;2.08;;;7.30;91.70;;;;;;4978083;28;87460;-72
2023/02/25 08:39:55;;;;;;;4.53;1.50;;;7.40;91.50;;;;;;4976572;28;87334;-72
2023/02/25 08:42:22;;;;;;;4.55;1.67;;;7.40;91.10;;;;;;4979307;28;88174;-73
2023/02/25 08:44:48;;;;;;;3.90;1.23;;;7.40;91.20;;;;;;4978373;28;87462;-71
2023/02/25 08:47:15;;;;;;;7.80;1.77;;;7.50;91.40;;;;;;4984382;28;88333;-72
2023/02/25 08:49:40;;;;;;;4.47;1.60;;;7.50;91.40;;;;;;4974094;28;87765;-72
2023/02/25 08:52:10;;;;;;;5.60;1.85;;;7.50;91.20;;;;;;4995368;28;88044;-72
2023/02/25 08:54:37;;;;;;;5.93;2.38;;;7.50;91.90;;;;;;4996010;28;87287;-70
2023/02/25 08:57:02;;;;;;;6.30;2.35;;;7.30;91.40;;;;;;4988452;28;87462;-72
2023/02/25 08:59:34;;;;;;;6.63;2.30;;;7.20;92.00;;;;;;4990905;28;89652;-72
2023/02/25 09:02:01;;;;;;;8.95;2.92;;;7.00;92.60;;;;;;4978400;28;89082;-72
2023/02/25 09:04:27;;;;;;;9.48;3.17;;;7.00;92.80;;;;;;4985581;28;87882;-72
2023/02/25 09:06:53;;;;;;;10.13;3.70;;;7.00;92.80;;;;;;4992076;28;87856;-72
2023/02/25 09:09:20;;;;;;;17.52;6.63;;;7.00;92.80;;;;;;4988347;28;87312;-69
2023/02/25 09:11:47;;;;;;;17.15;7.60;;;7.00;92.80;;;;;;4972893;28;88449;-71
2023/02/25 09:14:13;;;;;;;9.57;3.80;;;7.00;92.90;;;;;;4980321;28;89354;-71
2023/02/25 09:16:39;;;;;;;9.07;2.75;;;7.10;92.50;;;;;;4985094;28;88055;-72
2023/02/25 09:19:05;;;;;;;7.22;2.53;;;7.00;92.10;;;;;;4978115;28;87442;-71
2023/02/25 09:21:31;;;;;;;9.40;4.35;;;7.00;92.30;;;;;;4986866;28;87682;-73
2023/02/25 09:23:57;;;;;;;5.97;2.72;;;7.00;92.70;;;;;;4987064;28;87433;-73
2023/02/25 09:26:23;;;;;;;6.38;2.90;;;7.10;92.80;;;;;;5000061;28;87513;-72
2023/02/25 09:28:49;;;;;;;7.90;2.53;;;7.30;93.30;;;;;;5000066;28;87032;-72
2023/02/25 09:31:15;;;;;;;5.78;2.08;;;7.50;92.70;;;;;;4980139;28;88677;-72
2023/02/25 09:33:42;;;;;;;6.30;2.30;;;7.60;91.90;;;;;;4980599;28;87508;-72
2023/02/25 09:36:14;;;;;;;8.27;2.92;;;7.60;91.80;;;;;;4990122;28;88381;-72
2023/02/25 09:38:41;;;;;;;5.47;2.17;;;7.70;91.40;;;;;;4980041;28;87543;-72
2023/02/25 09:41:30;;;;;;;5.40;1.90;;;7.60;90.60;;;;;;4989462;28;87712;-72
2023/02/25 09:44:07;;;;;;;5.05;1.90;;;7.60;90.40;;;;;;4957558;28;87782;-72
2023/02/25 09:46:36;;;;;;;6.03;1.83;;;7.70;90.30;;;;;;4978458;28;88918;-71
2023/02/25 09:49:27;;;;;;;5.22;2.17;;;7.70;90.00;;;;;;4979939;28;87606;-72
2023/02/25 09:52:04;;;;;;;7.80;2.03;;;7.70;89.20;;;;;;4980913;28;87461;-72
2023/02/25 09:54:38;;;;;;;;;;;7.70;90.20;;;;;;4996287;28;87808;-73
2023/02/25 09:57:06;;;;;;;6.75;1.85;;;7.90;90.60;;;;;;5000591;28;86919;-71
2023/02/25 09:59:31;;;;;;;10.05;3.08;;;8.00;89.40;;;;;;4999778;28;87119;-72
2023/02/25 10:02:26;;;;;;;12.25;4.15;;;8.10;87.30;;;;;;4986825;28;88899;-71
2023/02/25 10:05:13;;;;;;;12.38;4.00;;;8.00;86.60;;;;;;4992727;28;89313;-71
2023/02/25 10:07:49;;;;;;;13.35;5.25;;;8.10;85.10;;;;;;4992285;28;87311;-72
2023/02/25 10:10:24;;;;;;;11.68;3.47;;;8.10;84.10;;;;;;4993195;28;87362;-72
2023/02/25 10:13:03;;;;;;;10.60;4.03;;;8.20;85.90;;;;;;4995488;28;88056;-72
2023/02/25 10:15:34;;;;;;;11.75;3.67;;;8.30;84.60;;;;;;4970782;28;87415;-71
2023/02/25 10:18:19;;;;;;;9.07;2.90;;;8.40;84.40;;;;;;4998384;28;87110;-73
2023/02/25 10:21:15;;;;;;;6.40;3.10;;;8.40;84.10;;;;;;4999039;28;86453;-70
2023/02/25 10:24:12;;;;;;;10.65;3.20;;;8.40;83.90;;;;;;4976276;28;87929;-70
2023/02/25 10:27:10;;;;;;;7.43;3.00;;;8.50;85.50;;;;;;4984307;28;88558;-71
2023/02/25 10:29:41;;;;;;;9.52;3.50;;;8.60;83.50;;;;;;4973992;28;88278;-70
2023/02/25 10:32:18;;;;;;;8.35;3.00;;;8.50;82.80;;;;;;4979125;28;87340;-73
2023/02/25 10:34:44;;;;;;;7.43;3.50;;;8.50;83.90;;;;;;4980360;28;87671;-72
2023/02/25 10:37:18;;;;;;;20.67;8.65;;;8.50;84.70;;;;;;4987758;28;87486;-70
2023/02/25 10:39:47;;;;;;;13.00;4.82;;;8.50;84.10;;;;;;4994311;28;87224;-72
2023/02/25 10:42:15;;;;;;;9.68;3.75;;;8.50;83.70;;;;;;4991847;28;87407;-72
2023/02/25 10:44:43;;;;;;;12.55;4.47;;;8.50;84.10;;;;;;4977633;28;88904;-71
2023/02/25 10:47:14;;;;;;;10.98;3.05;;;8.40;83.40;;;;;;4995248;28;87917;-72
2023/02/25 10:49:39;;;;;;;7.93;3.53;;;8.40;83.00;;;;;;4986781;28;87567;-72
2023/02/25 10:52:16;;;;;;;8.70;4.40;;;8.40;83.70;;;;;;4977856;28;87509;-70
2023/02/25 10:54:52;;;;;;;7.72;3.05;;;8.30;84.00;;;;;;4993605;28;89497;-71
2023/02/25 10:57:27;;;;;;;7.82;2.90;;;8.30;82.40;;;;;;4979922;28;88774;-72
2023/02/25 11:00:25;;;;;;;7.78;2.80;;;8.20;82.30;;;;;;4982339;28;87430;-72
2023/02/25 11:02:51;;;;;;;7.13;3.00;;;8.10;83.00;;;;;;4978308;28;87485;-72
2023/02/25 11:05:40;;;;;;;7.90;3.33;;;8.10;83.70;;;;;;4978056;28;88207;-72
2023/02/25 11:08:26;;;;;;;7.63;3.08;;;8.00;83.30;;;;;;4978995;28;87641;-72
2023/02/25 11:11:13;;;;;;;10.25;3.45;;;7.90;84.10;;;;;;4975367;28;87352;-72
2023/02/25 11:13:39;;;;;;;8.95;3.42;;;7.90;85.10;;;;;;4978731;28;86522;-72
2023/02/25 11:16:11;;;;;;;7.18;2.80;;;7.90;84.20;;;;;;4983339;28;87549;-72
2023/02/25 11:18:38;;;;;;;9.80;2.67;;;7.80;83.10;;;;;;4983228;28;87855;-72
2023/02/25 11:21:11;;;;;;;6.80;2.35;;;7.70;82.60;;;;;;4981784;28;89096;-72
2023/02/25 11:23:45;;;;;;;6.63;2.10;;;7.60;80.60;;;;;;4971062;28;87258;-70
2023/02/25 11:26:31;;;;;;;7.10;1.83;;;7.60;80.10;;;;;;4977071;28;88809;-73
2023/02/25 11:29:15;;;;;;;4.70;1.92;;;7.60;80.50;;;;;;4996740;28;87990;-72
2023/02/25 11:31:42;;;;;;;5.50;1.83;;;7.50;80.70;;;;;;4998219;28;87349;-70
2023/02/25 11:34:18;;;;;;;3.83;1.50;;;7.50;81.20;;;;;;4980315;28;88712;-73
2023/02/25 11:36:44;;;;;;;6.97;1.98;;;7.70;80.70;;;;;;4977446;28;87768;-70
2023/02/25 11:39:16;;;;;;;5.85;1.40;;;7.70;80.10;;;;;;4984333;28;88320;-73
2023/02/25 11:41:48;;;;;;;5.00;1.58;;;7.60;79.00;;;;;;4997123;28;87478;-70
2023/02/25 11:44:29;;;;;;;5.57;1.48;;;7.60;79.30;;;;;;4993020;28;87705;-72
2023/02/25 11:47:04;;;;;;;5.25;1.88;;;7.60;80.10;;;;;;4979653;28;89065;-71
2023/02/25 11:49:41;;;;;;;5.50;1.75;;;7.70;80.50;;;;;;4978075;28;88175;-70
2023/02/25 11:52:39;;;;;;;7.78;1.77;;;7.70;79.70;;;;;;4975833;28;87058;-72
2023/02/25 11:55:21;;;;;;;5.28;1.63;;;7.60;79.10;;;;;;4980628;28;87820;-72
2023/02/25 11:58:01;;;;;;;8.15;1.77;;;7.60;79.20;;;;;;4977896;28;87560;-72
2023/02/25 12:00:54;;;;;;;3.95;1.25;;;7.50;80.00;;;;;;4976993;28;88079;-72
2023/02/25 12:03:37;;;;;;;6.28;1.80;;;7.60;80.70;;;;;;4976457;28;87655;-70
2023/02/25 12:06:33;;;;;;;5.50;1.70;;;7.60;80.70;;;;;;4974965;28;87046;-70
2023/02/25 12:09:10;;;;;;;6.50;1.63;;;7.60;79.10;;;;;;4966805;28;87688;-72
2023/02/25 12:12:04;;;;;;;5.82;1.92;;;7.70;79.40;;;;;;4993575;28;87412;-73
2023/02/25 12:14:36;;;;;;;5.53;1.85;;;7.60;79.30;;;;;;4986173;28;88150;-70
2023/02/25 12:17:04;;;;;;;8.63;2.35;;;7.60;79.40;;;;;;4978181;28;87676;-70
2023/02/25 12:19:45;;;;;;;6.13;2.10;;;7.60;78.90;;;;;;4976698;28;88721;-72
2023/02/25 12:22:25;;;;;;;6.93;1.85;;;7.50;78.30;;;;;;4992591;28;88048;-70
2023/02/25 12:25:21;;;;;;;4.65;1.75;;;7.50;78.90;;;;;;4992215;28;87025;-71
2023/02/25 12:27:46;;;;;;;6.32;1.75;;;7.40;79.10;;;;;;4993685;28;87208;-72
2023/02/25 12:30:19;;;;;;;8.20;2.10;;;7.40;79.90;;;;;;4986515;28;87670;-72
2023/02/25 12:33:15;;;;;;;7.18;2.35;;;7.40;80.00;;;;;;4995888;28;87841;-71
2023/02/25 12:36:02;;;;;;;6.97;2.05;;;7.40;80.20;;;;;;4991190;28;88136;-70
2023/02/25 12:38:28;;;;;;;8.07;2.25;;;7.30;80.20;;;;;;4992872;28;87664;-72
2023/02/25 12:40:53;;;;;;;5.88;1.85;;;7.20;80.00;;;;;;4981377;28;89857;-72
2023/02/25 12:43:30;;;;;;;5.90;1.75;;;7.10;79.50;;;;;;4979063;28;89161;-73
2023/02/25 12:46:38;;;;;;;7.80;2.20;;;7.10;81.60;;;;;;4990858;28;87192;-72
2023/02/25 12:49:22;;;;;;;5.32;1.85;;;7.10;82.10;;;;;;4946801;28;87692;-72
2023/02/25 12:52:07;;;;;;;6.90;2.08;;;7.00;82.70;;;;;;4976326;28;88370;-72
2023/02/25 12:54:57;;;;;;;5.25;1.80;;;7.00;82.90;;;;;;4970692;28;88314;-73
2023/02/25 12:57:42;;;;;;;;;;;6.90;84.60;;;;;;4978780;28;87428;-73
2023/02/25 13:00:29;;;;;;;6.55;1.95;;;6.90;84.10;;;;;;4982565;28;87549;-72
2023/02/25 13:03:14;;;;;;;7.38;2.08;;;6.90;85.10;;;;;;4979910;28;88683;-72
2023/02/25 13:06:08;;;;;;;7.18;2.30;;;6.90;85.30;;;;;;4980822;28;87809;-73
2023/02/25 13:08:54;;;;;;;7.22;2.50;;;6.70;86.10;;;;;;4958025;28;90269;-72
2023/02/25 13:11:25;;;;;;;6.97;2.30;;;6.50;88.10;;;;;;4975234;28;87851;-71
2023/02/25 13:14:02;;;;;;;7.28;2.67;;;6.50;89.40;;;;;;4966156;28;88346;-71
2023/02/25 13:16:57;;;;;;;7.72;2.58;;;6.50;89.10;;;;;;4978107;28;87784;-72
2023/02/25 13:19:55;;;;;;;7.88;1.92;;;6.40;88.50;;;;;;4978452;28;87569;-72